Morgan Ray — WDF6085 — position and weather

sailwx.info

Track history (hours):
 
Tides and Currents Weather Stations Pressure Air Temp Water Temp Dewpoint Dewpoint Depression Visibility Wind Speed Wind Dir Waves Ship Positions

Morgan Ray

Owner: Daigle Towing Service LLC., Belle Chasse, LA. More information available from US FCC via Universal Licensing System and Coast Guard Vessel Documentation Center.

Last reported at 2015-Aug-05 03:33 UTC. Time now 2015-Aug-05 04:25 UTC.
Position N 29°60' W 090°01'.

Length 20 m; draft 2 m.

Type: Tug. MMSI: 367470470.

Date/timePositionNaut miles runAvg speedWind from/ knotsBaromVisibWave heightAir tempDewpointWater temp
2015-Aug-05 03:33N 29°60' W 090°01'0 0.0
2015-Aug-05 02:32N 29°60' W 090°01'0 0.0
2015-Aug-05 01:27N 29°60' W 090°01'8 0.2
2015-Aug-03 12:19N 29°55' W 090°08'3 0.1
2015-Aug-02 10:27N 29°54' W 090°05'171 3.4
2015-Jul-31 08:34N 30°24' W 086°50'13 5.9
2015-Jul-31 06:24N 30°24' W 086°35'6 7.3
2015-Jul-31 05:34N 30°26' W 086°29'7 7.4
2015-Jul-31 04:34N 30°26' W 086°20'  
2015-Jul-27 04:34N 30°26' W 086°24'22 5.4
2015-Jul-27 00:34N 30°24' W 086°49'  
Track history (hours):
 
Tides and Currents Weather Stations Pressure Air Temp Water Temp Dewpoint Dewpoint Depression Visibility Wind Speed Wind Dir Waves Ship Positions

Morgan Ray

Owner: Daigle Towing Service LLC., Belle Chasse, LA. More information available from US FCC via Universal Licensing System and Coast Guard Vessel Documentation Center.

Last reported at 2015-Aug-05 03:33 UTC. Time now 2015-Aug-05 04:25 UTC.
Position N 29°60' W 090°01'.

Length 20 m; draft 2 m.

Type: Tug. MMSI: 367470470.

Date/timePositionNaut miles runAvg speedWind from/ knotsBaromVisibWave heightAir tempDewpointWater temp
2015-Aug-05 03:33N 29°60' W 090°01'0 0.0
2015-Aug-05 02:32N 29°60' W 090°01'0 0.0
2015-Aug-05 01:27N 29°60' W 090°01'8 0.2
2015-Aug-03 12:19N 29°55' W 090°08'3 0.1
2015-Aug-02 10:27N 29°54' W 090°05'171 3.4
2015-Jul-31 08:34N 30°24' W 086°50'13 5.9
2015-Jul-31 06:24N 30°24' W 086°35'6 7.3
2015-Jul-31 05:34N 30°26' W 086°29'7 7.4
2015-Jul-31 04:34N 30°26' W 086°20'  
2015-Jul-27 04:34N 30°26' W 086°24'22 5.4
2015-Jul-27 00:34N 30°24' W 086°49'  

Dump ship's entire track history